Time;durP1;ratioP1;P1;durP2;ratioP2;P2;SDS_P1;SDS_P2;PMS_P1;PMS_P2;Temp;Humidity;BMP_temperature;BMP_pressure;BME280_temperature;BME280_humidity;BME280_pressure;Samples;Min_cycle;Max_cycle;Signal;HPM_P1;HPM_P2
2022/09/20 00:00:36;;;;;;;2.83;1.90;;;8.60;99.90;;;;;;5041359;28;20196;-44
2022/09/20 00:03:03;;;;;;;4.37;1.80;;;8.30;99.90;;;;;;5041232;28;20277;-41
2022/09/20 00:05:32;;;;;;;1.70;1.60;;;8.60;99.90;;;;;;5042270;28;20210;-43
2022/09/20 00:08:01;;;;;;;2.07;1.60;;;8.40;99.90;;;;;;5032290;28;20206;-43
2022/09/20 00:10:29;;;;;;;2.70;1.57;;;8.50;99.90;;;;;;5043172;28;20199;-42
2022/09/20 00:12:56;;;;;;;2.10;1.60;;;8.20;99.90;;;;;;5044450;28;20282;-42
2022/09/20 00:15:23;;;;;;;2.83;1.83;;;8.20;99.90;;;;;;5043387;28;20239;-43
2022/09/20 00:17:50;;;;;;;1.97;1.70;;;7.80;99.90;;;;;;5041120;28;20246;-42
2022/09/20 00:20:17;;;;;;;2.67;1.90;;;8.30;99.90;;;;;;5055101;28;20211;-44
2022/09/20 00:22:48;;;;;;;2.17;1.97;;;8.50;99.90;;;;;;5041695;28;20203;-42
2022/09/20 00:25:16;;;;;;;6.40;2.10;;;8.30;99.90;;;;;;5031435;28;20582;-42
2022/09/20 00:27:44;;;;;;;2.53;1.77;;;8.30;99.90;;;;;;5041737;28;20184;-42
2022/09/20 00:30:13;;;;;;;2.80;1.50;;;8.20;99.90;;;;;;5044222;28;20200;-43
2022/09/20 00:32:40;;;;;;;3.67;1.70;;;8.20;99.90;;;;;;5036937;28;20291;-42
2022/09/20 00:35:08;;;;;;;2.27;1.87;;;8.20;99.90;;;;;;5046865;28;20226;-42
2022/09/20 00:37:36;;;;;;;4.43;1.53;;;8.20;99.90;;;;;;5041418;28;20201;-42
2022/09/20 00:40:04;;;;;;;5.90;2.23;;;8.20;99.90;;;;;;5032699;28;20204;-43
2022/09/20 00:42:33;;;;;;;5.13;2.40;;;8.30;99.90;;;;;;5041910;28;20234;-42
2022/09/20 00:45:02;;;;;;;5.13;2.27;;;8.30;99.90;;;;;;5043701;28;20290;-46
2022/09/20 00:47:41;;;;;;;6.10;2.40;;;8.40;99.90;;;;;;5038981;28;20210;-42
2022/09/20 00:50:20;;;;;;;8.57;2.93;;;8.40;99.90;;;;;;5047997;28;20555;-43
2022/09/20 00:52:51;;;;;;;7.83;2.37;;;8.40;99.90;;;;;;5041637;28;20184;-44
2022/09/20 00:55:19;;;;;;;2.53;2.23;;;8.50;99.90;;;;;;5029763;28;20231;-45
2022/09/20 00:57:48;;;;;;;7.70;2.23;;;8.50;99.90;;;;;;5041742;28;20720;-42
2022/09/20 01:00:15;;;;;;;9.97;2.47;;;8.50;99.90;;;;;;5044661;28;20191;-43
2022/09/20 01:02:46;;;;;;;9.90;3.10;;;8.50;99.90;;;;;;5040773;28;20207;-42
2022/09/20 01:05:15;;;;;;;11.93;2.70;;;8.50;99.90;;;;;;5052422;28;20219;-42
2022/09/20 01:07:43;;;;;;;12.13;3.10;;;8.50;99.90;;;;;;5060797;28;20183;-45
2022/09/20 01:10:10;;;;;;;8.37;3.33;;;8.60;99.90;;;;;;5043720;28;20207;-42
2022/09/20 01:12:39;;;;;;;10.00;3.30;;;8.60;99.90;;;;;;5038850;28;20194;-42
2022/09/20 01:15:09;;;;;;;10.87;2.93;;;8.60;99.90;;;;;;5043460;28;20691;-47
2022/09/20 01:17:40;;;;;;;11.97;3.60;;;8.70;99.90;;;;;;5039269;28;20960;-49
2022/09/20 01:20:18;;;;;;;8.27;3.83;;;8.60;99.90;;;;;;5044503;28;20533;-47
2022/09/20 01:23:01;;;;;;;4.40;2.17;;;8.70;99.90;;;;;;5040924;28;20211;-46
2022/09/20 01:25:55;;;;;;;5.77;2.40;;;8.60;99.90;;;;;;5028741;28;20596;-47
2022/09/20 01:28:24;;;;;;;4.30;2.47;;;8.60;99.90;;;;;;5043243;28;20203;-46
2022/09/20 01:30:59;;;;;;;7.30;2.37;;;8.50;99.90;;;;;;5042106;28;20179;-47
2022/09/20 01:33:35;;;;;;;6.30;2.67;;;8.50;99.90;;;;;;5040913;28;20547;-46
2022/09/20 01:36:05;;;;;;;5.83;2.80;;;8.50;99.90;;;;;;5051031;28;20230;-46
2022/09/20 01:38:40;;;;;;;3.53;2.70;;;8.50;99.90;;;;;;5060950;28;20202;-49
2022/09/20 01:41:14;;;;;;;5.53;2.60;;;8.40;99.90;;;;;;5033695;28;20217;-48
2022/09/20 01:43:48;;;;;;;4.47;2.60;;;8.40;99.90;;;;;;5031052;28;20191;-47
2022/09/20 01:46:27;;;;;;;4.40;2.60;;;8.40;99.90;;;;;;5043874;28;20211;-46
2022/09/20 01:49:05;;;;;;;4.80;2.83;;;8.40;99.90;;;;;;5042438;28;20249;-47
2022/09/20 01:52:09;;;;;;;4.33;2.57;;;8.30;99.90;;;;;;5040620;28;20187;-46
2022/09/20 01:55:08;;;;;;;6.20;3.53;;;8.20;99.90;;;;;;5026376;28;20763;-48
2022/09/20 01:58:25;;;;;;;7.50;2.60;;;8.20;99.90;;;;;;5039618;28;20250;-48
2022/09/20 02:01:16;;;;;;;5.00;3.20;;;8.10;99.90;;;;;;5040052;28;20200;-44
2022/09/20 02:04:07;;;;;;;6.87;2.77;;;8.10;99.90;;;;;;5038416;28;20215;-44
2022/09/20 02:06:45;;;;;;;4.77;2.83;;;8.00;99.90;;;;;;5040257;28;20224;-45
2022/09/20 02:09:34;;;;;;;6.67;3.20;;;8.00;99.90;;;;;;5043434;28;20188;-44
2022/09/20 02:12:20;;;;;;;3.53;2.40;;;8.00;99.90;;;;;;5025469;28;20208;-48
2022/09/20 02:14:58;;;;;;;3.30;2.67;;;7.90;99.90;;;;;;5032721;28;21013;-45
2022/09/20 02:17:37;;;;;;;3.77;2.60;;;7.90;99.90;;;;;;5041421;28;20219;-49
2022/09/20 02:20:17;;;;;;;8.03;3.37;;;7.90;99.90;;;;;;5042508;28;20197;-47
2022/09/20 02:23:13;;;;;;;4.73;2.30;;;7.80;99.90;;;;;;5019220;28;20280;-46
2022/09/20 02:26:00;;;;;;;3.97;2.30;;;7.70;99.90;;;;;;5019472;28;20444;-44
2022/09/20 02:28:41;;;;;;;5.60;2.70;;;7.70;99.90;;;;;;5026134;28;20203;-45
2022/09/20 02:31:16;;;;;;;4.10;2.77;;;7.80;99.90;;;;;;5043139;28;20199;-48
2022/09/20 02:34:08;;;;;;;3.00;2.57;;;7.80;99.90;;;;;;5036795;28;20814;-44
2022/09/20 02:36:46;;;;;;;3.87;2.90;;;7.80;99.90;;;;;;5039300;28;20215;-45
2022/09/20 02:39:17;;;;;;;7.63;2.80;;;7.90;99.90;;;;;;5042988;28;20195;-44
2022/09/20 02:42:03;;;;;;;8.37;2.60;;;7.90;99.90;;;;;;5026728;28;20203;-46
2022/09/20 02:44:53;;;;;;;11.63;2.87;;;7.90;99.90;;;;;;5039320;28;20199;-45
2022/09/20 02:47:27;;;;;;;3.27;2.83;;;7.90;99.90;;;;;;5042613;28;20203;-46
2022/09/20 02:50:08;;;;;;;5.90;2.83;;;8.00;99.90;;;;;;5041131;28;20218;-45
2022/09/20 02:52:41;;;;;;;4.73;2.43;;;8.00;99.90;;;;;;5039115;28;20533;-49
2022/09/20 02:55:16;;;;;;;4.93;2.70;;;8.00;99.90;;;;;;5040929;28;20221;-45
2022/09/20 02:57:50;;;;;;;5.10;3.40;;;8.00;99.90;;;;;;5019177;28;20205;-50
2022/09/20 03:00:22;;;;;;;4.33;2.87;;;8.00;99.90;;;;;;5042578;28;20192;-46
2022/09/20 03:03:03;;;;;;;6.70;3.17;;;8.00;99.90;;;;;;5040093;28;20219;-48
2022/09/20 03:05:43;;;;;;;5.13;2.70;;;7.90;99.90;;;;;;5039544;28;20211;-45
2022/09/20 03:08:31;;;;;;;6.30;3.00;;;7.90;99.90;;;;;;5042978;28;20198;-47
2022/09/20 03:11:09;;;;;;;5.47;3.03;;;7.90;99.90;;;;;;5041412;28;20202;-48
2022/09/20 03:13:49;;;;;;;5.07;2.67;;;7.90;99.90;;;;;;5024668;28;20653;-47
2022/09/20 03:16:28;;;;;;;6.80;2.80;;;7.90;99.90;;;;;;5042791;28;20692;-45
2022/09/20 03:19:06;;;;;;;3.27;2.83;;;7.90;99.90;;;;;;5041306;28;20495;-49
2022/09/20 03:21:49;;;;;;;6.27;2.30;;;8.00;99.90;;;;;;5039556;28;20206;-46
2022/09/20 03:24:26;;;;;;;5.00;2.43;;;7.90;99.90;;;;;;5041784;28;20192;-46
2022/09/20 03:26:57;;;;;;;3.93;2.53;;;7.90;99.90;;;;;;5040696;28;20186;-47
2022/09/20 03:29:42;;;;;;;6.40;2.50;;;7.90;99.90;;;;;;5028527;28;20763;-46
2022/09/20 03:32:26;;;;;;;4.80;2.70;;;7.90;99.90;;;;;;5042897;28;20689;-46
2022/09/20 03:35:02;;;;;;;6.57;2.87;;;7.90;99.90;;;;;;5041187;28;20312;-48
2022/09/20 03:37:45;;;;;;;6.57;3.17;;;7.80;99.90;;;;;;5043039;28;20213;-47
2022/09/20 03:40:35;;;;;;;3.57;2.30;;;7.80;99.90;;;;;;5046111;28;20188;-49
2022/09/20 03:43:14;;;;;;;8.40;2.87;;;7.80;99.90;;;;;;5033566;28;20714;-48
2022/09/20 03:45:54;;;;;;;3.60;2.87;;;7.80;99.90;;;;;;5034164;28;20211;-47
2022/09/20 03:48:45;;;;;;;2.93;2.30;;;7.80;99.90;;;;;;5045482;28;20213;-46
2022/09/20 03:51:23;;;;;;;4.33;2.30;;;7.80;99.90;;;;;;5045989;28;20270;-47
2022/09/20 03:54:10;;;;;;;3.10;2.40;;;7.70;99.90;;;;;;5042557;28;20190;-47
2022/09/20 03:56:52;;;;;;;3.80;2.40;;;7.70;99.90;;;;;;5041618;28;20222;-48
2022/09/20 03:59:36;;;;;;;3.33;2.17;;;7.70;99.90;;;;;;5032666;28;20218;-47
2022/09/20 04:02:25;;;;;;;2.50;2.30;;;7.60;99.90;;;;;;5045571;28;20846;-48
2022/09/20 04:04:58;;;;;;;3.13;2.40;;;7.60;99.90;;;;;;5043197;28;20285;-48
2022/09/20 04:07:34;;;;;;;3.23;2.60;;;7.50;99.90;;;;;;5043229;28;20670;-46
2022/09/20 04:10:27;;;;;;;4.63;2.40;;;7.50;99.90;;;;;;5045469;28;20667;-47
2022/09/20 04:13:12;;;;;;;5.03;2.50;;;7.50;99.90;;;;;;5040978;28;20219;-45
2022/09/20 04:15:51;;;;;;;1.90;1.80;;;7.50;99.90;;;;;;5028672;28;20223;-48
2022/09/20 04:18:28;;;;;;;2.67;2.30;;;7.50;99.90;;;;;;5045285;28;20233;-48
2022/09/20 04:21:01;;;;;;;3.03;2.47;;;7.50;99.90;;;;;;5044228;28;20193;-48
2022/09/20 04:23:39;;;;;;;3.63;2.60;;;7.40;99.90;;;;;;5041252;28;20230;-51
2022/09/20 04:26:07;;;;;;;2.60;2.40;;;7.40;99.90;;;;;;5045307;28;20240;-47
2022/09/20 04:28:40;;;;;;;4.33;2.30;;;7.30;99.90;;;;;;5041904;28;20249;-46
2022/09/20 04:31:20;;;;;;;2.70;2.50;;;7.20;99.90;;;;;;5032286;28;20549;-46
2022/09/20 04:33:50;;;;;;;2.43;2.10;;;7.20;99.90;;;;;;5034254;28;20187;-47
2022/09/20 04:36:32;;;;;;;7.23;2.60;;;7.10;99.90;;;;;;5044931;28;20222;-45
2022/09/20 04:39:11;;;;;;;2.93;2.30;;;7.00;99.90;;;;;;5039498;28;20195;-47
2022/09/20 04:42:24;;;;;;;2.20;2.00;;;7.00;99.90;;;;;;5020844;28;20200;-46
2022/09/20 04:45:21;;;;;;;3.17;2.10;;;7.00;99.90;;;;;;5021842;28;20291;-47
2022/09/20 04:48:24;;;;;;;5.57;2.80;;;6.90;99.90;;;;;;5020175;28;20282;-45
2022/09/20 04:51:18;;;;;;;3.73;2.47;;;6.90;99.90;;;;;;5042756;28;20932;-47
2022/09/20 04:54:18;;;;;;;2.63;2.43;;;6.80;99.90;;;;;;5040496;28;20852;-47
2022/09/20 04:57:05;;;;;;;5.57;2.50;;;6.90;99.90;;;;;;5041010;28;21105;-45
2022/09/20 04:59:52;;;;;;;4.63;2.13;;;6.90;99.90;;;;;;5041633;28;20199;-44
2022/09/20 05:02:56;;;;;;;3.97;2.23;;;6.90;99.90;;;;;;5030172;28;20219;-46
2022/09/20 05:05:58;;;;;;;3.57;2.57;;;6.90;99.90;;;;;;5038483;28;20240;-46
2022/09/20 05:08:51;;;;;;;2.80;2.40;;;6.90;99.90;;;;;;5043026;28;20187;-48
2022/09/20 05:11:57;;;;;;;2.97;2.27;;;6.90;99.90;;;;;;5043892;28;20198;-46
2022/09/20 05:14:50;;;;;;;3.23;2.50;;;6.80;99.90;;;;;;5041882;28;20192;-46
2022/09/20 05:17:31;;;;;;;5.33;2.73;;;6.90;99.90;;;;;;5031132;28;20215;-46
2022/09/20 05:20:26;;;;;;;6.33;2.83;;;6.80;99.90;;;;;;5043532;28;20259;-51
2022/09/20 05:23:10;;;;;;;6.70;3.30;;;6.80;99.90;;;;;;5042180;28;20234;-48
2022/09/20 05:26:07;;;;;;;9.17;3.87;;;6.70;99.90;;;;;;5034656;28;20230;-48
2022/09/20 05:28:44;;;;;;;4.33;3.03;;;6.70;99.90;;;;;;5034076;28;20226;-47
2022/09/20 05:31:18;;;;;;;4.70;3.07;;;6.90;99.90;;;;;;5052488;28;20211;-46
2022/09/20 05:33:52;;;;;;;7.13;2.90;;;6.80;99.90;;;;;;5029614;28;20203;-45
2022/09/20 05:36:26;;;;;;;6.70;3.17;;;6.90;99.90;;;;;;5042424;28;20316;-47
2022/09/20 05:39:00;;;;;;;6.20;3.07;;;6.90;99.90;;;;;;5040848;28;20190;-46
2022/09/20 05:41:37;;;;;;;6.23;2.83;;;6.90;99.90;;;;;;5044063;28;20215;-44
2022/09/20 05:44:15;;;;;;;21.73;3.47;;;6.90;99.90;;;;;;5038829;28;20226;-45
2022/09/20 05:46:57;;;;;;;5.47;2.83;;;6.90;99.90;;;;;;5035913;28;20235;-46
2022/09/20 05:49:39;;;;;;;5.83;3.00;;;6.90;99.90;;;;;;5041475;28;20226;-47
2022/09/20 05:52:28;;;;;;;4.23;2.90;;;6.90;99.90;;;;;;5038392;28;20200;-45
2022/09/20 05:55:20;;;;;;;2.57;2.20;;;6.90;99.90;;;;;;5038115;28;20211;-46
2022/09/20 05:58:02;;;;;;;4.63;2.70;;;7.00;99.90;;;;;;5041326;28;20199;-47
2022/09/20 06:00:35;;;;;;;2.27;2.07;;;7.00;99.90;;;;;;5037102;28;20202;-47
2022/09/20 06:03:14;;;;;;;6.43;3.10;;;7.10;99.90;;;;;;5021020;28;22057;-45
2022/09/20 06:05:52;;;;;;;4.23;3.00;;;7.20;99.90;;;;;;5034958;28;20293;-47
2022/09/20 06:08:35;;;;;;;5.47;2.47;;;7.20;99.90;;;;;;5042341;28;20269;-48
2022/09/20 06:11:19;;;;;;;6.10;2.73;;;7.30;99.90;;;;;;5038222;28;20273;-45
2022/09/20 06:14:02;;;;;;;3.03;2.53;;;7.30;99.90;;;;;;5038188;28;20644;-46
2022/09/20 06:16:38;;;;;;;3.73;2.77;;;7.40;99.90;;;;;;5043116;28;20227;-46
2022/09/20 06:19:16;;;;;;;3.43;2.50;;;7.40;99.90;;;;;;5036398;28;21379;-48
2022/09/20 06:21:49;;;;;;;4.30;2.33;;;7.50;99.90;;;;;;5039878;28;20227;-46
2022/09/20 06:24:26;;;;;;;5.47;2.67;;;7.50;99.90;;;;;;5040219;28;20317;-47
2022/09/20 06:26:56;;;;;;;5.87;2.70;;;7.60;99.90;;;;;;5040042;28;20199;-47
2022/09/20 06:29:30;;;;;;;2.63;2.37;;;7.70;99.90;;;;;;5040113;28;20679;-46
2022/09/20 06:31:57;;;;;;;4.47;2.43;;;7.80;99.90;;;;;;5039231;28;20198;-47
2022/09/20 06:34:27;;;;;;;3.00;2.47;;;7.80;99.90;;;;;;5049724;28;20199;-46
2022/09/20 06:42:43;;;;;;;4.50;2.40;;;8.00;99.90;;;;;;5042725;28;20274;-47
2022/09/20 06:45:10;;;;;;;8.37;2.73;;;8.10;99.90;;;;;;5046638;28;20844;-45
2022/09/20 06:47:36;;;;;;;3.40;2.23;;;8.20;99.90;;;;;;5041814;28;20199;-45
2022/09/20 06:50:05;;;;;;;3.97;2.47;;;8.40;99.90;;;;;;5030830;28;20880;-47
2022/09/20 06:52:34;;;;;;;2.53;2.33;;;8.50;99.90;;;;;;5027148;28;20207;-50
2022/09/20 06:55:06;;;;;;;6.23;2.70;;;8.60;99.90;;;;;;5036387;28;20219;-47
2022/09/20 06:57:36;;;;;;;4.73;2.53;;;8.70;99.90;;;;;;5040729;28;20209;-45
2022/09/20 07:00:04;;;;;;;5.07;2.40;;;8.70;99.90;;;;;;5037804;28;20975;-45
2022/09/20 07:02:31;;;;;;;5.70;2.40;;;8.80;99.90;;;;;;5042418;28;20285;-46
2022/09/20 07:04:57;;;;;;;4.57;2.33;;;8.90;99.90;;;;;;5032669;28;20715;-45
2022/09/20 07:07:26;;;;;;;5.30;2.63;;;9.00;99.90;;;;;;5029237;28;20212;-49
2022/09/20 07:09:53;;;;;;;9.20;3.47;;;9.10;99.90;;;;;;5039444;28;20199;-49
2022/09/20 07:12:20;;;;;;;4.23;2.20;;;9.20;99.90;;;;;;5044724;28;20491;-48
2022/09/20 07:14:46;;;;;;;4.00;2.00;;;9.30;99.90;;;;;;5040671;28;20214;-46
2022/09/20 07:17:13;;;;;;;6.43;2.60;;;9.30;99.90;;;;;;5042361;28;20959;-47
2022/09/20 07:19:40;;;;;;;5.83;2.53;;;9.40;99.90;;;;;;5047348;28;20213;-48
2022/09/20 07:22:07;;;;;;;5.40;2.67;;;9.50;99.90;;;;;;5032123;28;20249;-46
2022/09/20 07:24:35;;;;;;;4.63;2.03;;;9.50;99.90;;;;;;5043440;28;20215;-47
2022/09/20 07:27:04;;;;;;;9.33;2.73;;;9.60;99.90;;;;;;5039606;28;20205;-46
2022/09/20 07:29:31;;;;;;;6.47;2.43;;;9.70;99.90;;;;;;5044985;28;21035;-47
2022/09/20 07:31:58;;;;;;;8.53;2.57;;;9.70;99.90;;;;;;5042209;28;20668;-45
2022/09/20 07:34:26;;;;;;;4.07;1.90;;;9.80;99.90;;;;;;5038963;28;20195;-45
2022/09/20 07:36:52;;;;;;;5.80;2.23;;;9.90;99.90;;;;;;5033886;28;20222;-46
2022/09/20 07:39:19;;;;;;;10.73;2.10;;;10.00;99.90;;;;;;5042243;28;20209;-45
2022/09/20 07:41:49;;;;;;;3.40;2.10;;;10.10;99.90;;;;;;5043881;28;20278;-46
2022/09/20 07:47:01;;;;;;;7.97;2.67;;;10.30;99.90;;;;;;5040246;28;20207;-45
2022/09/20 07:49:29;;;;;;;6.83;1.97;;;10.40;99.90;;;;;;5044617;28;20690;-44
2022/09/20 07:51:57;;;;;;;9.97;2.43;;;10.60;99.90;;;;;;5051294;28;20297;-47
2022/09/20 07:54:26;;;;;;;3.87;2.20;;;10.60;99.90;;;;;;5031306;28;20196;-46
2022/09/20 07:56:54;;;;;;;8.63;1.90;;;10.70;99.90;;;;;;5036139;28;20245;-49
2022/09/20 07:59:21;;;;;;;7.37;1.93;;;10.80;99.90;;;;;;5043680;28;20672;-48
2022/09/20 08:01:48;;;;;;;4.70;1.70;;;10.80;99.90;;;;;;5043367;28;20203;-48
2022/09/20 08:04:15;;;;;;;5.53;2.00;;;10.90;99.90;;;;;;5041206;28;20203;-45
2022/09/20 08:06:43;;;;;;;6.13;2.23;;;11.00;99.90;;;;;;5051469;28;20219;-46
2022/09/20 08:09:11;;;;;;;8.70;1.77;;;11.10;99.90;;;;;;5028491;28;20211;-45
2022/09/20 08:11:39;;;;;;;6.80;1.90;;;11.20;99.90;;;;;;5044907;28;20683;-47
2022/09/20 08:14:09;;;;;;;9.13;1.87;;;11.30;99.90;;;;;;5040510;28;20226;-46
2022/09/20 08:16:39;;;;;;;2.37;2.03;;;11.40;99.90;;;;;;5043421;28;20226;-47
2022/09/20 08:19:06;;;;;;;7.13;2.33;;;11.50;99.90;;;;;;5032264;28;20184;-47
2022/09/20 08:21:34;;;;;;;5.50;2.30;;;11.60;99.90;;;;;;5040111;28;20210;-46
2022/09/20 08:24:02;;;;;;;7.80;1.77;;;11.60;99.90;;;;;;5024039;28;20301;-47
2022/09/20 08:26:31;;;;;;;12.77;1.60;;;11.70;99.90;;;;;;5042939;28;20211;-45
2022/09/20 08:29:00;;;;;;;7.07;1.67;;;11.70;99.90;;;;;;5040339;28;20226;-47
2022/09/20 08:31:33;;;;;;;6.33;1.80;;;11.70;99.90;;;;;;5043348;28;20209;-45
2022/09/20 08:34:02;;;;;;;7.20;1.67;;;11.90;99.90;;;;;;5036856;28;20176;-45
2022/09/20 08:36:31;;;;;;;8.00;1.40;;;11.90;99.90;;;;;;5044256;28;20215;-45
2022/09/20 08:38:58;;;;;;;6.20;1.60;;;12.00;99.90;;;;;;5040567;28;20202;-45
2022/09/20 08:41:29;;;;;;;7.87;1.77;;;12.10;99.90;;;;;;5030512;28;20672;-45
2022/09/20 08:43:59;;;;;;;9.30;1.40;;;12.20;99.90;;;;;;5039840;28;20247;-45
2022/09/20 08:46:33;;;;;;;8.90;2.73;;;12.10;99.90;;;;;;5043496;28;20265;-47
2022/09/20 08:49:00;;;;;;;4.07;1.37;;;12.10;99.90;;;;;;5038996;28;20806;-45
2022/09/20 08:51:30;;;;;;;6.23;1.27;;;12.30;99.90;;;;;;5043277;28;20203;-46
2022/09/20 08:53:58;;;;;;;9.63;1.83;;;12.40;99.90;;;;;;5036205;28;20211;-45
2022/09/20 08:56:28;;;;;;;6.67;1.20;;;12.40;99.90;;;;;;5031495;28;20234;-45
2022/09/20 08:58:59;;;;;;;6.13;1.60;;;12.30;99.90;;;;;;5040124;28;20198;-45
2022/09/20 09:01:30;;;;;;;4.63;1.17;;;12.30;99.90;;;;;;5032334;28;20674;-46
2022/09/20 09:04:01;;;;;;;6.77;1.43;;;12.40;99.90;;;;;;5041384;28;20211;-46
2022/09/20 09:06:29;;;;;;;6.53;1.10;;;12.60;99.90;;;;;;5041056;28;20692;-47
2022/09/20 09:08:58;;;;;;;3.60;1.07;;;12.60;99.90;;;;;;5058678;28;20896;-46
2022/09/20 09:11:25;;;;;;;4.40;1.07;;;12.60;99.90;;;;;;5041787;28;20222;-46
2022/09/20 09:13:56;;;;;;;4.93;1.60;;;12.70;99.90;;;;;;5033052;28;20191;-45
2022/09/20 09:16:25;;;;;;;8.30;1.20;;;12.70;99.90;;;;;;5039520;28;20211;-46
2022/09/20 09:18:55;;;;;;;6.20;1.20;;;12.70;99.90;;;;;;5039753;28;20996;-46
2022/09/20 09:21:24;;;;;;;11.43;1.20;;;12.70;99.90;;;;;;5041360;28;20873;-49
2022/09/20 09:23:56;;;;;;;3.93;1.20;;;12.80;99.90;;;;;;5044055;28;20212;-46
2022/09/20 09:26:24;;;;;;;10.33;1.73;;;12.90;99.90;;;;;;5048259;28;20261;-48
2022/09/20 09:29:16;;;;;;;4.70;1.50;;;13.00;99.90;;;;;;5027751;28;20211;-48
2022/09/20 09:31:45;;;;;;;7.87;1.37;;;13.00;99.90;;;;;;5038084;28;20432;-45
2022/09/20 09:34:25;;;;;;;7.33;1.37;;;13.10;99.90;;;;;;5042401;28;20198;-50
2022/09/20 09:36:54;;;;;;;3.67;0.77;;;13.10;99.90;;;;;;5040047;28;20190;-47
2022/09/20 09:39:24;;;;;;;7.80;1.30;;;13.10;99.90;;;;;;5047873;28;20207;-46
2022/09/20 09:41:51;;;;;;;7.10;1.03;;;;;;;;;;5037644;28;20589;-48
2022/09/20 09:44:20;;;;;;;9.20;1.57;;;;;;;;;;5029384;28;20225;-46
2022/09/20 09:46:49;;;;;;;7.87;0.97;;;13.50;99.90;;;;;;5039368;28;20219;-48
2022/09/20 09:49:17;;;;;;;6.50;1.10;;;13.60;99.90;;;;;;5043403;28;20286;-46
2022/09/20 09:52:02;;;;;;;3.67;1.60;;;13.60;99.90;;;;;;5038803;28;20211;-48
2022/09/20 09:54:32;;;;;;;6.80;1.13;;;13.50;99.90;;;;;;5037009;28;20305;-46
2022/09/20 09:57:16;;;;;;;9.47;1.37;;;13.60;99.90;;;;;;5041260;28;20211;-48
2022/09/20 09:59:58;;;;;;;2.97;1.40;;;13.70;99.90;;;;;;5022163;28;20204;-47
2022/09/20 10:02:53;;;;;;;9.43;1.40;;;13.70;99.90;;;;;;5041279;28;20191;-50
2022/09/20 10:05:24;;;;;;;4.77;1.17;;;13.50;99.90;;;;;;5041906;28;20238;-48
2022/09/20 10:08:01;;;;;;;6.27;1.10;;;13.40;99.90;;;;;;5040892;28;20187;-45
2022/09/20 10:10:35;;;;;;;10.60;1.20;;;13.40;99.90;;;;;;5038219;28;20206;-48
2022/09/20 10:13:15;;;;;;;8.73;1.47;;;13.40;99.90;;;;;;5042106;28;20199;-47
2022/09/20 10:15:50;;;;;;;3.87;1.13;;;13.40;99.90;;;;;;5026143;28;20215;-45
2022/09/20 10:18:33;;;;;;;4.67;0.93;;;13.50;99.90;;;;;;5042257;28;20252;-48
2022/09/20 10:21:10;;;;;;;6.10;1.07;;;13.60;99.90;;;;;;5040806;28;20191;-46
2022/09/20 10:23:52;;;;;;;2.87;1.10;;;13.80;99.90;;;;;;5038091;28;20203;-48
2022/09/20 10:26:32;;;;;;;5.13;1.27;;;13.80;99.90;;;;;;5041769;28;20222;-49
2022/09/20 10:29:08;;;;;;;5.60;0.97;;;13.80;99.90;;;;;;5040292;28;20191;-51
2022/09/20 10:31:47;;;;;;;3.27;1.00;;;13.80;99.90;;;;;;5026390;28;20207;-48
2022/09/20 10:34:32;;;;;;;2.47;0.80;;;13.90;99.90;;;;;;5040281;28;20260;-50
2022/09/20 10:37:01;;;;;;;4.37;1.43;;;13.90;99.90;;;;;;5041795;28;20229;-48
2022/09/20 10:39:33;;;;;;;4.33;1.10;;;13.90;99.90;;;;;;5040115;28;20694;-52
2022/09/20 10:45:10;;;;;;;6.40;1.07;;;14.20;99.90;;;;;;5030587;28;20214;-47
2022/09/20 10:47:45;;;;;;;6.70;0.90;;;14.30;99.90;;;;;;5030051;28;20221;-46
2022/09/20 10:50:28;;;;;;;5.67;1.00;;;14.30;99.90;;;;;;5046069;28;20274;-46
2022/09/20 10:53:17;;;;;;;4.73;1.93;;;14.40;99.90;;;;;;5043780;28;20306;-45
2022/09/20 10:55:54;;;;;;;5.87;1.43;;;14.50;99.90;;;;;;5033762;28;20304;-49
2022/09/20 10:58:53;;;;;;;6.70;1.30;;;14.50;99.90;;;;;;5042655;28;20206;-48
2022/09/20 11:01:28;;;;;;;8.63;1.80;;;14.50;99.90;;;;;;5035958;28;20536;-44
2022/09/20 11:04:21;;;;;;;5.63;1.37;;;14.50;99.90;;;;;;5036373;28;20260;-46
2022/09/20 11:06:56;;;;;;;11.57;2.60;;;14.40;99.90;;;;;;5037257;28;20214;-46
2022/09/20 11:09:27;;;;;;;9.57;2.57;;;14.30;99.90;;;;;;5044241;28;20199;-44
2022/09/20 11:12:03;;;;;;;6.07;1.47;;;14.40;99.90;;;;;;5045137;28;20203;-45
2022/09/20 11:14:35;;;;;;;6.03;1.73;;;14.60;99.90;;;;;;5039585;28;20237;-43
2022/09/20 11:17:03;;;;;;;6.23;1.43;;;;;;;;;;5035307;28;20207;-47
2022/09/20 11:19:40;;;;;;;4.17;0.80;;;14.70;99.90;;;;;;5021236;28;20215;-44
2022/09/20 11:22:11;;;;;;;4.30;0.97;;;14.70;99.90;;;;;;5039084;28;20199;-47
2022/09/20 11:24:42;;;;;;;4.47;1.40;;;14.60;99.90;;;;;;5045862;28;20268;-48
2022/09/20 11:27:17;;;;;;;6.80;1.53;;;14.40;99.90;;;;;;5045413;28;20325;-45
2022/09/20 11:29:49;;;;;;;6.93;1.23;;;14.30;99.90;;;;;;5038497;28;20249;-44
2022/09/20 11:32:23;;;;;;;4.73;0.83;;;14.30;99.90;;;;;;5020380;28;20440;-45
2022/09/20 11:34:54;;;;;;;3.30;1.20;;;14.20;99.90;;;;;;5019941;28;20217;-43
2022/09/20 11:37:25;;;;;;;4.93;0.90;;;14.40;99.90;;;;;;5038350;28;20192;-47
2022/09/20 11:39:54;;;;;;;4.53;1.20;;;14.50;99.90;;;;;;5040412;28;20211;-45
2022/09/20 11:42:27;;;;;;;2.67;1.00;;;14.50;99.90;;;;;;5038215;28;20298;-50
2022/09/20 11:44:54;;;;;;;2.03;0.67;;;14.70;99.90;;;;;;5038925;28;20222;-45
2022/09/20 11:47:24;;;;;;;3.53;1.07;;;14.70;99.90;;;;;;5033474;28;21009;-44
2022/09/20 11:50:07;;;;;;;3.37;1.00;;;14.60;99.90;;;;;;5025500;28;20211;-47
2022/09/20 11:52:58;;;;;;;3.97;1.07;;;14.50;99.90;;;;;;5041454;28;20195;-46
2022/09/20 11:55:42;;;;;;;3.90;1.10;;;14.40;99.90;;;;;;5044250;28;20226;-45
2022/09/20 11:58:14;;;;;;;5.77;1.47;;;14.30;99.90;;;;;;5033418;28;20194;-44
2022/09/20 12:00:45;;;;;;;2.37;0.87;;;14.30;99.90;;;;;;5034936;28;20440;-47
2022/09/20 12:03:25;;;;;;;2.57;1.27;;;14.40;99.90;;;;;;5030687;28;20253;-44
2022/09/20 12:05:58;;;;;;;6.37;1.27;;;14.60;99.90;;;;;;5038322;28;20223;-48
2022/09/20 12:08:29;;;;;;;3.43;0.83;;;14.80;99.90;;;;;;5038954;28;20218;-46
2022/09/20 12:10:58;;;;;;;6.63;1.60;;;;;;;;;;5043604;28;20282;-46
2022/09/20 12:13:27;;;;;;;4.43;1.27;;;15.10;99.90;;;;;;5047255;28;20213;-48
2022/09/20 12:16:00;;;;;;;3.80;0.80;;;15.10;99.90;;;;;;5042603;28;20291;-45
2022/09/20 12:18:35;;;;;;;6.07;0.77;;;15.10;99.90;;;;;;5034417;28;20199;-46
2022/09/20 12:21:11;;;;;;;1.77;0.70;;;15.10;99.90;;;;;;5024944;28;20210;-46
2022/09/20 12:23:46;;;;;;;3.67;0.77;;;15.20;99.90;;;;;;5040737;28;20195;-46
2022/09/20 12:26:35;;;;;;;3.53;0.67;;;15.30;99.90;;;;;;5047055;28;20227;-49
2022/09/20 12:29:54;;;;;;;4.97;0.80;;;15.30;99.90;;;;;;5036515;28;20207;-42
2022/09/20 12:32:59;;;;;;;3.73;0.73;;;15.50;99.90;;;;;;5036700;28;20207;-42
2022/09/20 12:36:14;;;;;;;2.63;0.77;;;15.60;99.90;;;;;;5021241;28;20258;-44
2022/09/20 12:39:15;;;;;;;4.13;0.73;;;15.60;99.90;;;;;;5041213;28;20289;-44
2022/09/20 12:41:51;;;;;;;2.60;0.60;;;15.50;99.90;;;;;;5044348;28;20206;-42
2022/09/20 12:44:26;;;;;;;5.33;1.10;;;15.40;99.90;;;;;;5042526;28;20221;-44
2022/09/20 12:46:55;;;;;;;1.13;0.57;;;15.50;99.90;;;;;;5044151;28;20226;-45
2022/09/20 12:52:56;;;;;;;3.23;0.70;;;15.60;99.90;;;;;;5026746;28;20210;-44
2022/09/20 12:55:39;;;;;;;4.00;0.80;;;15.80;99.90;;;;;;5043724;28;20214;-44
2022/09/20 12:58:35;;;;;;;5.53;1.27;;;15.90;99.90;;;;;;5039901;28;20203;-45
2022/09/20 13:01:45;;;;;;;4.77;0.97;;;16.00;99.90;;;;;;5038014;28;20202;-45
2022/09/20 13:04:51;;;;;;;1.93;0.80;;;16.10;99.90;;;;;;5023260;28;21014;-42
2022/09/20 13:07:43;;;;;;;5.23;0.80;;;16.20;99.90;;;;;;5027724;28;20215;-44
2022/09/20 13:10:23;;;;;;;3.07;0.70;;;16.20;99.90;;;;;;5040888;28;20223;-44
2022/09/20 13:12:54;;;;;;;2.33;0.93;;;16.30;99.90;;;;;;5038984;28;20203;-45
2022/09/20 13:15:22;;;;;;;1.53;0.60;;;16.40;99.90;;;;;;5044453;28;20884;-46
2022/09/20 13:17:52;;;;;;;1.77;0.90;;;16.50;99.90;;;;;;5050184;28;20199;-43
2022/09/20 13:20:24;;;;;;;2.77;0.87;;;17.10;99.90;;;;;;5041805;28;20196;-43
2022/09/20 13:22:53;;;;;;;2.50;0.70;;;16.70;99.50;;;;;;5026541;28;20781;-43
2022/09/20 13:25:21;;;;;;;4.20;0.60;;;16.50;99.50;;;;;;5029859;28;20272;-42
2022/09/20 13:27:53;;;;;;;3.87;0.87;;;16.30;99.80;;;;;;5052752;28;20594;-45
2022/09/20 13:30:23;;;;;;;2.90;0.77;;;16.20;99.90;;;;;;5028773;28;20659;-47
2022/09/20 13:32:50;;;;;;;1.77;0.50;;;16.30;99.90;;;;;;5040412;28;20199;-48
2022/09/20 13:35:20;;;;;;;3.80;0.80;;;16.50;99.80;;;;;;5040196;28;21003;-45
2022/09/20 13:37:53;;;;;;;4.23;0.63;;;17.00;99.80;;;;;;5018031;28;20219;-45
2022/09/20 13:40:22;;;;;;;1.37;0.60;;;17.60;98.00;;;;;;5042842;28;20209;-45
2022/09/20 13:42:51;;;;;;;2.20;0.70;;;18.20;96.90;;;;;;5042952;28;20211;-43
2022/09/20 13:45:20;;;;;;;6.00;1.10;;;18.80;95.80;;;;;;5035467;28;20386;-45
2022/09/20 13:47:50;;;;;;;2.50;0.40;;;18.80;95.30;;;;;;5047986;28;20286;-44
2022/09/20 13:50:22;;;;;;;3.00;0.90;;;18.40;95.10;;;;;;5038958;28;20852;-44
2022/09/20 13:52:52;;;;;;;2.33;1.00;;;18.10;95.10;;;;;;5029095;28;20218;-43
2022/09/20 13:55:25;;;;;;;1.40;0.57;;;17.60;95.20;;;;;;5030634;28;20222;-49